sensor_id;sensor_type;location;lat;lon;timestamp;temperature;humidity
20915;DHT22;10617;52.032;5.298;2023-02-15T00:00:12;4.50;99.90
20915;DHT22;10617;52.032;5.298;2023-02-15T00:04:15;4.50;99.90
20915;DHT22;10617;52.032;5.298;2023-02-15T00:08:17;4.40;99.90
20915;DHT22;10617;52.032;5.298;2023-02-15T00:12:18;4.30;99.90
20915;DHT22;10617;52.032;5.298;2023-02-15T00:16:20;4.30;99.90
20915;DHT22;10617;52.032;5.298;2023-02-15T00:20:22;4.30;99.90
20915;DHT22;10617;52.032;5.298;2023-02-15T00:24:23;4.30;99.90
20915;DHT22;10617;52.032;5.298;2023-02-15T00:28:25;4.30;99.90
20915;DHT22;10617;52.032;5.298;2023-02-15T00:32:26;4.20;99.90
20915;DHT22;10617;52.032;5.298;2023-02-15T00:36:28;4.20;99.90
20915;DHT22;10617;52.032;5.298;2023-02-15T00:40:30;4.20;99.90
20915;DHT22;10617;52.032;5.298;2023-02-15T00:44:31;4.10;99.90
20915;DHT22;10617;52.032;5.298;2023-02-15T00:48:33;4.10;99.90
20915;DHT22;10617;52.032;5.298;2023-02-15T00:52:35;4.20;99.90
20915;DHT22;10617;52.032;5.298;2023-02-15T00:56:36;4.20;99.90
20915;DHT22;10617;52.032;5.298;2023-02-15T01:00:38;4.10;99.90
20915;DHT22;10617;52.032;5.298;2023-02-15T01:04:41;4.00;99.90
20915;DHT22;10617;52.032;5.298;2023-02-15T01:08:43;4.00;99.90
20915;DHT22;10617;52.032;5.298;2023-02-15T01:12:45;4.00;99.90
20915;DHT22;10617;52.032;5.298;2023-02-15T01:16:47;4.00;99.90
20915;DHT22;10617;52.032;5.298;2023-02-15T01:20:48;4.00;99.90
20915;DHT22;10617;52.032;5.298;2023-02-15T01:24:50;4.00;99.90
20915;DHT22;10617;52.032;5.298;2023-02-15T01:28:52;3.90;99.90
20915;DHT22;10617;52.032;5.298;2023-02-15T01:32:53;3.90;99.90
20915;DHT22;10617;52.032;5.298;2023-02-15T01:36:55;3.90;99.90
20915;DHT22;10617;52.032;5.298;2023-02-15T01:40:57;3.90;99.90
20915;DHT22;10617;52.032;5.298;2023-02-15T01:45:21;3.90;99.90
20915;DHT22;10617;52.032;5.298;2023-02-15T01:49:24;3.80;99.90
20915;DHT22;10617;52.032;5.298;2023-02-15T01:57:29;3.70;99.90
20915;DHT22;10617;52.032;5.298;2023-02-15T02:01:31;3.70;99.90
20915;DHT22;10617;52.032;5.298;2023-02-15T02:05:32;3.60;99.90
20915;DHT22;10617;52.032;5.298;2023-02-15T02:09:35;3.60;99.90
20915;DHT22;10617;52.032;5.298;2023-02-15T02:13:37;3.60;99.90
20915;DHT22;10617;52.032;5.298;2023-02-15T02:35:44;3.70;99.90
20915;DHT22;10617;52.032;5.298;2023-02-15T02:40:01;3.70;99.90
20915;DHT22;10617;52.032;5.298;2023-02-15T02:48:13;3.90;99.90
20915;DHT22;10617;52.032;5.298;2023-02-15T02:56:41;4.00;99.90
20915;DHT22;10617;52.032;5.298;2023-02-15T03:01:06;4.00;99.90
20915;DHT22;10617;52.032;5.298;2023-02-15T03:05:11;4.10;99.90
20915;DHT22;10617;52.032;5.298;2023-02-15T03:09:18;4.10;99.90
20915;DHT22;10617;52.032;5.298;2023-02-15T03:13:22;4.00;99.90
20915;DHT22;10617;52.032;5.298;2023-02-15T03:17:25;4.00;99.90
20915;DHT22;10617;52.032;5.298;2023-02-15T03:21:37;4.00;99.90
20915;DHT22;10617;52.032;5.298;2023-02-15T03:25:42;3.90;99.90
20915;DHT22;10617;52.032;5.298;2023-02-15T03:29:45;4.00;99.90
20915;DHT22;10617;52.032;5.298;2023-02-15T03:33:53;4.00;99.90
20915;DHT22;10617;52.032;5.298;2023-02-15T03:37:59;4.00;99.90
20915;DHT22;10617;52.032;5.298;2023-02-15T03:46:25;4.00;99.90
20915;DHT22;10617;52.032;5.298;2023-02-15T03:50:26;4.00;99.90
20915;DHT22;10617;52.032;5.298;2023-02-15T03:54:47;4.00;99.90
20915;DHT22;10617;52.032;5.298;2023-02-15T03:58:50;3.90;99.90
20915;DHT22;10617;52.032;5.298;2023-02-15T04:07:44;3.90;99.90
20915;DHT22;10617;52.032;5.298;2023-02-15T04:11:45;3.90;99.90
20915;DHT22;10617;52.032;5.298;2023-02-15T04:15:47;3.80;99.90
20915;DHT22;10617;52.032;5.298;2023-02-15T04:20:08;3.80;99.90
20915;DHT22;10617;52.032;5.298;2023-02-15T04:24:28;3.80;99.90
20915;DHT22;10617;52.032;5.298;2023-02-15T04:28:48;3.70;99.90
20915;DHT22;10617;52.032;5.298;2023-02-15T04:32:50;3.70;99.90
20915;DHT22;10617;52.032;5.298;2023-02-15T04:36:52;3.70;99.90
20915;DHT22;10617;52.032;5.298;2023-02-15T04:40:54;3.60;99.90
20915;DHT22;10617;52.032;5.298;2023-02-15T04:44:55;3.60;99.90
20915;DHT22;10617;52.032;5.298;2023-02-15T04:48:57;3.60;99.90
20915;DHT22;10617;52.032;5.298;2023-02-15T04:52:59;3.50;99.90
20915;DHT22;10617;52.032;5.298;2023-02-15T04:57:00;3.50;99.90
20915;DHT22;10617;52.032;5.298;2023-02-15T05:01:02;3.40;99.90
20915;DHT22;10617;52.032;5.298;2023-02-15T05:05:04;3.40;99.90
20915;DHT22;10617;52.032;5.298;2023-02-15T05:09:06;3.40;99.90
20915;DHT22;10617;52.032;5.298;2023-02-15T05:13:07;3.30;99.90
20915;DHT22;10617;52.032;5.298;2023-02-15T05:17:09;3.30;99.90
20915;DHT22;10617;52.032;5.298;2023-02-15T05:21:11;3.30;99.90
20915;DHT22;10617;52.032;5.298;2023-02-15T05:25:12;3.20;99.90
20915;DHT22;10617;52.032;5.298;2023-02-15T05:29:33;3.20;99.90
20915;DHT22;10617;52.032;5.298;2023-02-15T05:33:34;3.20;99.90
20915;DHT22;10617;52.032;5.298;2023-02-15T05:47:37;3.10;99.90
20915;DHT22;10617;52.032;5.298;2023-02-15T05:51:38;3.10;99.90
20915;DHT22;10617;52.032;5.298;2023-02-15T05:55:40;3.00;99.90
20915;DHT22;10617;52.032;5.298;2023-02-15T05:59:42;3.00;99.90
20915;DHT22;10617;52.032;5.298;2023-02-15T06:13:51;2.90;99.90
20915;DHT22;10617;52.032;5.298;2023-02-15T06:17:52;2.80;99.90
20915;DHT22;10617;52.032;5.298;2023-02-15T06:21:54;2.80;99.90
20915;DHT22;10617;52.032;5.298;2023-02-15T06:25:55;2.80;99.90
20915;DHT22;10617;52.032;5.298;2023-02-15T06:29:57;2.70;99.90
20915;DHT22;10617;52.032;5.298;2023-02-15T06:33:59;2.70;99.90
20915;DHT22;10617;52.032;5.298;2023-02-15T06:38:04;2.70;99.90
20915;DHT22;10617;52.032;5.298;2023-02-15T06:42:05;2.60;99.90
20915;DHT22;10617;52.032;5.298;2023-02-15T06:46:07;2.60;99.90
20915;DHT22;10617;52.032;5.298;2023-02-15T06:50:09;2.60;99.90
20915;DHT22;10617;52.032;5.298;2023-02-15T06:54:11;2.60;99.90
20915;DHT22;10617;52.032;5.298;2023-02-15T06:58:13;2.60;99.90
20915;DHT22;10617;52.032;5.298;2023-02-15T07:02:14;2.50;99.90
20915;DHT22;10617;52.032;5.298;2023-02-15T07:06:16;2.50;99.90
20915;DHT22;10617;52.032;5.298;2023-02-15T07:10:18;2.50;99.90
20915;DHT22;10617;52.032;5.298;2023-02-15T07:14:20;2.50;99.90
20915;DHT22;10617;52.032;5.298;2023-02-15T07:18:21;2.50;99.90
20915;DHT22;10617;52.032;5.298;2023-02-15T07:22:23;2.50;99.90
20915;DHT22;10617;52.032;5.298;2023-02-15T07:26:24;2.50;99.90
20915;DHT22;10617;52.032;5.298;2023-02-15T07:30:26;2.50;99.90
20915;DHT22;10617;52.032;5.298;2023-02-15T07:34:28;2.60;99.90
20915;DHT22;10617;52.032;5.298;2023-02-15T07:38:32;2.60;99.90
20915;DHT22;10617;52.032;5.298;2023-02-15T07:42:33;2.70;99.90
20915;DHT22;10617;52.032;5.298;2023-02-15T07:46:35;2.70;99.90
20915;DHT22;10617;52.032;5.298;2023-02-15T07:50:37;2.80;99.90
20915;DHT22;10617;52.032;5.298;2023-02-15T07:54:38;2.90;99.90
20915;DHT22;10617;52.032;5.298;2023-02-15T07:58:40;3.00;99.90
20915;DHT22;10617;52.032;5.298;2023-02-15T08:02:54;3.10;99.90
20915;DHT22;10617;52.032;5.298;2023-02-15T08:07:14;3.20;99.90
20915;DHT22;10617;52.032;5.298;2023-02-15T08:11:26;3.30;99.90
20915;DHT22;10617;52.032;5.298;2023-02-15T08:15:33;3.40;99.90
20915;DHT22;10617;52.032;5.298;2023-02-15T08:19:35;3.50;99.90
20915;DHT22;10617;52.032;5.298;2023-02-15T08:23:37;3.60;99.90
20915;DHT22;10617;52.032;5.298;2023-02-15T08:27:38;3.60;99.90
20915;DHT22;10617;52.032;5.298;2023-02-15T08:31:40;3.70;99.90
20915;DHT22;10617;52.032;5.298;2023-02-15T08:35:43;3.90;99.90
20915;DHT22;10617;52.032;5.298;2023-02-15T08:39:44;4.10;99.90
20915;DHT22;10617;52.032;5.298;2023-02-15T08:43:48;4.30;99.90
20915;DHT22;10617;52.032;5.298;2023-02-15T08:47:50;4.40;99.90
20915;DHT22;10617;52.032;5.298;2023-02-15T08:56:55;4.70;99.90
20915;DHT22;10617;52.032;5.298;2023-02-15T09:00:57;4.80;99.90
20915;DHT22;10617;52.032;5.298;2023-02-15T09:10:02;5.00;99.90
20915;DHT22;10617;52.032;5.298;2023-02-15T09:14:05;5.10;99.90
20915;DHT22;10617;52.032;5.298;2023-02-15T09:18:07;5.10;99.90
20915;DHT22;10617;52.032;5.298;2023-02-15T09:22:09;5.20;99.90
20915;DHT22;10617;52.032;5.298;2023-02-15T09:26:11;5.40;99.90
20915;DHT22;10617;52.032;5.298;2023-02-15T09:30:13;5.60;99.90
20915;DHT22;10617;52.032;5.298;2023-02-15T09:34:16;5.70;99.90
20915;DHT22;10617;52.032;5.298;2023-02-15T09:38:18;5.90;99.90
20915;DHT22;10617;52.032;5.298;2023-02-15T09:46:33;6.50;99.90
20915;DHT22;10617;52.032;5.298;2023-02-15T09:50:52;6.70;99.90
20915;DHT22;10617;52.032;5.298;2023-02-15T09:59:30;7.40;99.90
20915;DHT22;10617;52.032;5.298;2023-02-15T10:28:31;8.60;99.90
20915;DHT22;10617;52.032;5.298;2023-02-15T10:53:57;10.80;99.90
20915;DHT22;10617;52.032;5.298;2023-02-15T11:02:13;11.00;99.90
20915;DHT22;10617;52.032;5.298;2023-02-15T11:06:19;11.30;99.90
20915;DHT22;10617;52.032;5.298;2023-02-15T11:10:24;11.60;99.90
20915;DHT22;10617;52.032;5.298;2023-02-15T11:14:31;11.90;99.90
20915;DHT22;10617;52.032;5.298;2023-02-15T11:18:40;12.10;99.90
20915;DHT22;10617;52.032;5.298;2023-02-15T11:22:43;12.20;99.90
20915;DHT22;10617;52.032;5.298;2023-02-15T11:30:54;12.10;99.90
20915;DHT22;10617;52.032;5.298;2023-02-15T11:39:11;12.40;99.90
20915;DHT22;10617;52.032;5.298;2023-02-15T11:43:17;12.80;99.90
20915;DHT22;10617;52.032;5.298;2023-02-15T11:47:22;13.10;99.90
20915;DHT22;10617;52.032;5.298;2023-02-15T11:51:24;13.30;99.90
20915;DHT22;10617;52.032;5.298;2023-02-15T11:55:27;13.80;99.90
20915;DHT22;10617;52.032;5.298;2023-02-15T11:59:31;14.20;99.90
20915;DHT22;10617;52.032;5.298;2023-02-15T12:03:45;14.60;99.90
20915;DHT22;10617;52.032;5.298;2023-02-15T12:08:03;14.80;99.90
20915;DHT22;10617;52.032;5.298;2023-02-15T12:16:33;15.30;99.90
20915;DHT22;10617;52.032;5.298;2023-02-15T12:20:35;15.30;99.90
20915;DHT22;10617;52.032;5.298;2023-02-15T12:24:38;15.10;99.90
20915;DHT22;10617;52.032;5.298;2023-02-15T12:28:48;15.00;99.90
20915;DHT22;10617;52.032;5.298;2023-02-15T12:32:54;14.90;99.90
20915;DHT22;10617;52.032;5.298;2023-02-15T12:36:59;15.00;99.90
20915;DHT22;10617;52.032;5.298;2023-02-15T12:41:03;15.20;99.90
20915;DHT22;10617;52.032;5.298;2023-02-15T12:45:19;15.30;99.90
20915;DHT22;10617;52.032;5.298;2023-02-15T12:49:21;15.60;99.90
20915;DHT22;10617;52.032;5.298;2023-02-15T12:53:30;15.80;99.90
20915;DHT22;10617;52.032;5.298;2023-02-15T12:57:33;15.90;99.90
20915;DHT22;10617;52.032;5.298;2023-02-15T13:01:34;15.60;99.90
20915;DHT22;10617;52.032;5.298;2023-02-15T13:05:38;15.40;99.90
20915;DHT22;10617;52.032;5.298;2023-02-15T13:09:40;15.10;99.90
20915;DHT22;10617;52.032;5.298;2023-02-15T13:13:56;14.90;99.90
20915;DHT22;10617;52.032;5.298;2023-02-15T13:17:58;14.80;99.90
20915;DHT22;10617;52.032;5.298;2023-02-15T13:22:02;14.90;99.90
20915;DHT22;10617;52.032;5.298;2023-02-15T13:26:04;14.80;99.90
20915;DHT22;10617;52.032;5.298;2023-02-15T13:34:28;14.40;99.90
20915;DHT22;10617;52.032;5.298;2023-02-15T13:38:49;14.10;99.90
20915;DHT22;10617;52.032;5.298;2023-02-15T13:47:25;13.80;99.90
20915;DHT22;10617;52.032;5.298;2023-02-15T13:51:42;13.70;99.90
20915;DHT22;10617;52.032;5.298;2023-02-15T13:55:50;13.70;99.90
20915;DHT22;10617;52.032;5.298;2023-02-15T14:20:24;13.20;99.90
20915;DHT22;10617;52.032;5.298;2023-02-15T14:28:33;13.10;99.90
20915;DHT22;10617;52.032;5.298;2023-02-15T14:32:42;13.10;99.90
20915;DHT22;10617;52.032;5.298;2023-02-15T14:36:45;13.10;99.90
20915;DHT22;10617;52.032;5.298;2023-02-15T14:40:57;13.10;99.90
20915;DHT22;10617;52.032;5.298;2023-02-15T14:57:33;13.10;99.90
20915;DHT22;10617;52.032;5.298;2023-02-15T15:01:37;13.10;99.90
20915;DHT22;10617;52.032;5.298;2023-02-15T15:05:47;13.00;99.90
20915;DHT22;10617;52.032;5.298;2023-02-15T15:10:00;12.90;99.90
20915;DHT22;10617;52.032;5.298;2023-02-15T15:14:03;12.90;99.90
20915;DHT22;10617;52.032;5.298;2023-02-15T15:18:09;12.90;99.90
20915;DHT22;10617;52.032;5.298;2023-02-15T15:31:51;12.60;99.90
20915;DHT22;10617;52.032;5.298;2023-02-15T15:48:43;12.50;99.90
20915;DHT22;10617;52.032;5.298;2023-02-15T15:52:55;12.40;99.90
20915;DHT22;10617;52.032;5.298;2023-02-15T15:56:58;12.40;99.90
20915;DHT22;10617;52.032;5.298;2023-02-15T16:05:06;12.30;99.90
20915;DHT22;10617;52.032;5.298;2023-02-15T16:13:12;12.30;99.90
20915;DHT22;10617;52.032;5.298;2023-02-15T16:17:17;12.30;99.90
20915;DHT22;10617;52.032;5.298;2023-02-15T16:21:23;12.20;99.90
20915;DHT22;10617;52.032;5.298;2023-02-15T16:29:30;12.00;99.90
20915;DHT22;10617;52.032;5.298;2023-02-15T16:33:36;11.90;99.90
20915;DHT22;10617;52.032;5.298;2023-02-15T16:37:38;11.80;99.90
20915;DHT22;10617;52.032;5.298;2023-02-15T16:41:40;11.70;99.90
20915;DHT22;10617;52.032;5.298;2023-02-15T16:45:47;11.60;99.90
20915;DHT22;10617;52.032;5.298;2023-02-15T16:49:49;11.40;99.90
20915;DHT22;10617;52.032;5.298;2023-02-15T16:53:52;11.30;99.90
20915;DHT22;10617;52.032;5.298;2023-02-15T16:57:55;11.10;99.90
20915;DHT22;10617;52.032;5.298;2023-02-15T17:01:57;11.00;99.90
20915;DHT22;10617;52.032;5.298;2023-02-15T17:05:59;10.80;99.90
20915;DHT22;10617;52.032;5.298;2023-02-15T17:10:02;10.70;99.90
20915;DHT22;10617;52.032;5.298;2023-02-15T17:18:06;10.40;99.90
20915;DHT22;10617;52.032;5.298;2023-02-15T17:22:16;10.40;99.90
20915;DHT22;10617;52.032;5.298;2023-02-15T17:26:29;10.30;99.90
20915;DHT22;10617;52.032;5.298;2023-02-15T17:30:32;10.20;99.90
20915;DHT22;10617;52.032;5.298;2023-02-15T17:42:59;10.00;99.90
20915;DHT22;10617;52.032;5.298;2023-02-15T17:47:00;9.90;99.90
20915;DHT22;10617;52.032;5.298;2023-02-15T17:51:03;9.80;99.90
20915;DHT22;10617;52.032;5.298;2023-02-15T17:55:12;9.70;99.90
20915;DHT22;10617;52.032;5.298;2023-02-15T17:59:33;9.70;99.90
20915;DHT22;10617;52.032;5.298;2023-02-15T18:03:38;9.60;99.90
20915;DHT22;10617;52.032;5.298;2023-02-15T18:07:59;9.50;99.90
20915;DHT22;10617;52.032;5.298;2023-02-15T18:12:20;9.50;99.90
20915;DHT22;10617;52.032;5.298;2023-02-15T18:16:23;9.40;99.90
20915;DHT22;10617;52.032;5.298;2023-02-15T18:20:28;9.40;99.90
20915;DHT22;10617;52.032;5.298;2023-02-15T18:24:31;9.30;99.90
20915;DHT22;10617;52.032;5.298;2023-02-15T18:28:33;9.20;99.90
20915;DHT22;10617;52.032;5.298;2023-02-15T18:32:35;9.10;99.90
20915;DHT22;10617;52.032;5.298;2023-02-15T18:36:39;9.10;99.90
20915;DHT22;10617;52.032;5.298;2023-02-15T18:40:43;9.10;99.90
20915;DHT22;10617;52.032;5.298;2023-02-15T18:44:45;9.00;99.90
20915;DHT22;10617;52.032;5.298;2023-02-15T18:48:46;9.00;99.90
20915;DHT22;10617;52.032;5.298;2023-02-15T18:52:48;8.90;99.90
20915;DHT22;10617;52.032;5.298;2023-02-15T18:56:57;8.80;99.90
20915;DHT22;10617;52.032;5.298;2023-02-15T19:00:58;8.80;99.90
20915;DHT22;10617;52.032;5.298;2023-02-15T19:05:01;8.80;99.90
20915;DHT22;10617;52.032;5.298;2023-02-15T19:09:03;8.80;99.90
20915;DHT22;10617;52.032;5.298;2023-02-15T19:13:08;8.80;99.90
20915;DHT22;10617;52.032;5.298;2023-02-15T19:17:14;8.80;99.90
20915;DHT22;10617;52.032;5.298;2023-02-15T19:21:16;8.80;99.90
20915;DHT22;10617;52.032;5.298;2023-02-15T19:25:19;8.70;99.90
20915;DHT22;10617;52.032;5.298;2023-02-15T19:29:24;8.70;99.90
20915;DHT22;10617;52.032;5.298;2023-02-15T19:33:25;8.70;99.90
20915;DHT22;10617;52.032;5.298;2023-02-15T19:37:30;8.70;99.90
20915;DHT22;10617;52.032;5.298;2023-02-15T19:41:33;8.70;99.90
20915;DHT22;10617;52.032;5.298;2023-02-15T19:45:35;8.60;99.90
20915;DHT22;10617;52.032;5.298;2023-02-15T19:49:36;8.50;99.90
20915;DHT22;10617;52.032;5.298;2023-02-15T19:53:38;8.40;99.90
20915;DHT22;10617;52.032;5.298;2023-02-15T19:57:41;8.40;99.90
20915;DHT22;10617;52.032;5.298;2023-02-15T20:01:42;8.30;99.90
20915;DHT22;10617;52.032;5.298;2023-02-15T20:05:44;8.20;99.90
20915;DHT22;10617;52.032;5.298;2023-02-15T20:09:46;8.20;99.90
20915;DHT22;10617;52.032;5.298;2023-02-15T20:13:47;8.10;99.90
20915;DHT22;10617;52.032;5.298;2023-02-15T20:17:49;8.10;99.90
20915;DHT22;10617;52.032;5.298;2023-02-15T20:21:51;8.10;99.90
20915;DHT22;10617;52.032;5.298;2023-02-15T20:25:59;8.20;99.90
20915;DHT22;10617;52.032;5.298;2023-02-15T20:30:01;8.10;99.90
20915;DHT22;10617;52.032;5.298;2023-02-15T20:34:03;8.10;99.90
20915;DHT22;10617;52.032;5.298;2023-02-15T20:38:06;8.10;99.90
20915;DHT22;10617;52.032;5.298;2023-02-15T20:42:14;8.10;99.90
20915;DHT22;10617;52.032;5.298;2023-02-15T20:46:17;8.00;99.90
20915;DHT22;10617;52.032;5.298;2023-02-15T20:50:26;8.00;99.90
20915;DHT22;10617;52.032;5.298;2023-02-15T20:54:29;8.00;99.90
20915;DHT22;10617;52.032;5.298;2023-02-15T20:58:31;7.90;99.90
20915;DHT22;10617;52.032;5.298;2023-02-15T21:02:32;7.90;99.90
20915;DHT22;10617;52.032;5.298;2023-02-15T21:06:34;7.80;99.90
20915;DHT22;10617;52.032;5.298;2023-02-15T21:10:35;7.80;99.90
20915;DHT22;10617;52.032;5.298;2023-02-15T21:14:37;7.80;99.90
20915;DHT22;10617;52.032;5.298;2023-02-15T21:18:39;7.70;99.90
20915;DHT22;10617;52.032;5.298;2023-02-15T21:22:42;7.70;99.90
20915;DHT22;10617;52.032;5.298;2023-02-15T21:26:44;7.60;99.90
20915;DHT22;10617;52.032;5.298;2023-02-15T21:30:47;7.60;99.90
20915;DHT22;10617;52.032;5.298;2023-02-15T21:34:49;7.60;99.90
20915;DHT22;10617;52.032;5.298;2023-02-15T21:38:51;7.60;99.90
20915;DHT22;10617;52.032;5.298;2023-02-15T21:42:54;7.60;99.90
20915;DHT22;10617;52.032;5.298;2023-02-15T21:47:18;7.50;99.90
20915;DHT22;10617;52.032;5.298;2023-02-15T21:51:39;7.50;99.90
20915;DHT22;10617;52.032;5.298;2023-02-15T21:56:00;7.40;99.90
20915;DHT22;10617;52.032;5.298;2023-02-15T22:00:02;7.40;99.90
20915;DHT22;10617;52.032;5.298;2023-02-15T22:04:08;7.30;99.90
20915;DHT22;10617;52.032;5.298;2023-02-15T22:08:11;7.20;99.90
20915;DHT22;10617;52.032;5.298;2023-02-15T22:17:19;6.80;99.90
20915;DHT22;10617;52.032;5.298;2023-02-15T22:21:20;6.60;99.90
20915;DHT22;10617;52.032;5.298;2023-02-15T22:25:24;6.50;99.90
20915;DHT22;10617;52.032;5.298;2023-02-15T22:29:26;6.40;99.90
20915;DHT22;10617;52.032;5.298;2023-02-15T22:33:30;6.40;99.90
20915;DHT22;10617;52.032;5.298;2023-02-15T22:37:32;6.40;99.90
20915;DHT22;10617;52.032;5.298;2023-02-15T22:41:33;6.40;99.90
20915;DHT22;10617;52.032;5.298;2023-02-15T22:45:35;6.40;99.90
20915;DHT22;10617;52.032;5.298;2023-02-15T22:49:37;6.30;99.90
20915;DHT22;10617;52.032;5.298;2023-02-15T22:53:38;6.30;99.90
20915;DHT22;10617;52.032;5.298;2023-02-15T22:57:40;6.20;99.90
20915;DHT22;10617;52.032;5.298;2023-02-15T23:01:42;6.10;99.90
20915;DHT22;10617;52.032;5.298;2023-02-15T23:05:44;6.00;99.90
20915;DHT22;10617;52.032;5.298;2023-02-15T23:09:46;5.90;99.90
20915;DHT22;10617;52.032;5.298;2023-02-15T23:13:48;5.90;99.90
20915;DHT22;10617;52.032;5.298;2023-02-15T23:17:50;5.80;99.90
20915;DHT22;10617;52.032;5.298;2023-02-15T23:21:52;5.80;99.90
20915;DHT22;10617;52.032;5.298;2023-02-15T23:25:54;5.70;99.90
20915;DHT22;10617;52.032;5.298;2023-02-15T23:29:55;5.60;99.90
20915;DHT22;10617;52.032;5.298;2023-02-15T23:39:03;5.40;99.90
20915;DHT22;10617;52.032;5.298;2023-02-15T23:43:31;5.30;99.90
20915;DHT22;10617;52.032;5.298;2023-02-15T23:47:34;5.20;99.90
20915;DHT22;10617;52.032;5.298;2023-02-15T23:51:55;5.20;99.90
20915;DHT22;10617;52.032;5.298;2023-02-15T23:55:57;5.20;99.90
20915;DHT22;10617;52.032;5.298;2023-02-15T23:59:59;5.20;99.90
